Impacts METAR Board INFO
IDs:

KATL - Atlanta/Hartsfield-J, GA, US

Updated at: 1251 UTC 18 Dec 2017
Potential Impact None Slight Moderate High
Time18/00Z 18/01Z 18/02Z 18/03Z 18/04Z 18/05Z 18/06Z 18/07Z 18/08Z 18/09Z 18/10Z 18/11Z 18/12Z
VIS5 6 7 7 7 6 6 5 0.5 0.5 0.5 0.25 0.25
CIG24 17 14 10 9 7 6 5 2 2 2 2 2
CoverOVCOVCOVCOVCOVCOVCOVCOVCOVXOVXOVXOVXOVX
FltCatMVFRMVFRMVFRMVFRIFRIFRIFRIFRLIFRLIFRLIFRLIFRLIFR
WXBR-DZ BR-DZ-DZ--BRBRBRFGFGFGFGFG
WDir50401107070100900050000
WSpd7 7 4 4 4 3 3 0 0 4 0 0 0
WGst-- -- -- -- -- -- -- -- -- -- -- -- --
Raw hourly METARs
KATL 172352Z 05007KT 5SM BR FEW004 OVC024 07/07 A3018 RMK AO2 SLP225 60020 T00720067 10078 20061 53002
KATL 180052Z 04007KT 6SM -DZ BR FEW006 OVC017 08/07 A3019 RMK AO2 DZB48 SLP227 P0000 T00780067
KATL 180200Z 11004KT 7SM -DZ OVC014 08/07 A3018 RMK AO2 P0000 T00780072
KATL 180252Z 07004KT 7SM -DZ OVC010 08/07 A3017 RMK AO2 SLP221 P0000 60000 T00830072 58002
KATL 180352Z 07004KT 7SM OVC009 08/07 A3017 RMK AO2 DZE43 SLP219 CIG 008V010 P0000 T00830072
KATL 180452Z 10003KT 6SM BR OVC007 08/08 A3017 RMK AO2 SLP219 T00830078 400940022
KATL 180552Z 09003KT 6SM BR OVC006 08/08 A3016 RMK AO2 SLP217 60000 T00830078 10083 20072 58004
KATL 180652Z 00000KT 5SM BR OVC005 08/08 A3017 RMK AO2 SLP221 CIG 004V006 T00830078
KATL 180803Z 00000KT 1/2SM R09R/3500VP6000FT FG VV002 08/08 A3017 RMK AO2 T00830083
KATL 180852Z 05004KT 1/2SM R09R/2600V4000FT FG VV002 08/08 A3016 RMK AO2 SLP216 T00830083 58001
KATL 180952Z 00000KT 1/2SM R09R/2200FT FG VV002 08/08 A3015 RMK AO2 SLP213 T00830083
KATL 181052Z 00000KT 1/4SM R09R/1800V2200FT FG VV002 08/08 A3017 RMK AO2 SLP220 T00830083
KATL 181152Z 00000KT 1/4SM R09R/1200V1600FT FG VV002 09/09 A3018 RMK AO2 SLP223 70022 T00890089 10089 20083 53008